Аэропорт: Пашковский. Краснодар

ICAO: URKK

METAR:
2018/07/16 19:30
URKK 161930Z 23006MPS 9999 VCTS FEW///CB SCT/// 22/17 Q1005 R23L/CLRD70 TEMPO 2000 TSRAGR SCT005 BKN020CB RMK QFE751
METAR:
2018/07/16 18:21
TAF URKK 161651Z 1618/1718 22005G10MPS 9999 SCT030CB 
      TEMPO 1618/1715 VRB10G20MPS 0500 +TSRAGR SQ SCT005 BKN020CB